Time;durP1;ratioP1;P1;durP2;ratioP2;P2;SDS_P1;SDS_P2;PMS_P1;PMS_P2;Temp;Humidity;BMP_temperature;BMP_pressure;BME280_temperature;BME280_humidity;BME280_pressure;Samples;Min_cycle;Max_cycle;Signal;HPM_P1;HPM_P2
2023/09/16 09:11:19;;;;;;;;;;;21.30;1.00;;;;;;5072381;28;20064;-65
2023/09/16 09:13:45;;;;;;;;;;;21.30;1.00;;;;;;5091991;28;20182;-65
2023/09/16 09:16:14;;;;;;;;;;;21.70;1.00;;;;;;5093908;28;20453;-65
2023/09/16 09:18:40;;;;;;;;;;;22.00;1.00;;;;;;5093020;28;20656;-65
2023/09/16 09:21:05;;;;;;;;;;;21.70;1.00;;;;;;5075682;28;19927;-65
2023/09/16 09:23:31;;;;;;;;;;;21.80;1.00;;;;;;5092525;28;19923;-65
2023/09/16 09:25:57;;;;;;;;;;;21.80;1.00;;;;;;5092391;28;20606;-66
2023/09/16 09:28:22;;;;;;;;;;;22.10;99.90;;;;;;5092088;28;19930;-66
2023/09/16 09:30:49;;;;;;;;;;;22.20;99.90;;;;;;5075584;28;20589;-65
2023/09/16 09:33:18;;;;;;;;;;;22.40;99.90;;;;;;5093254;28;20018;-66
2023/09/16 09:35:44;;;;;;;;;;;22.50;99.90;;;;;;5091556;28;20413;-65
2023/09/16 09:38:09;;;;;;;;;;;22.80;99.90;;;;;;5091849;28;20337;-65
2023/09/16 09:40:35;;;;;;;;;;;22.90;99.90;;;;;;5074880;28;19927;-65
2023/09/16 09:43:00;;;;;;;;;;;23.10;99.90;;;;;;5126209;27;20297;-65
2023/09/16 09:45:27;;;;;;;;;;;23.20;99.90;;;;;;5074927;28;20415;-64
2023/09/16 09:47:53;;;;;;;;;;;23.40;99.90;;;;;;5109460;27;19981;-65
2023/09/16 09:50:20;;;;;;;;;;;23.80;99.90;;;;;;5094625;28;20365;-65
2023/09/16 09:52:46;;;;;;;;;;;24.40;99.90;;;;;;5090904;28;19927;-65
2023/09/16 09:55:12;;;;;;;;;;;24.90;99.90;;;;;;5091451;28;19934;-65
2023/09/16 09:57:38;;;;;;;;;;;24.90;99.90;;;;;;5090838;28;19924;-65
2023/09/16 10:00:06;;;;;;;;;;;25.20;99.90;;;;;;5091411;28;19924;-65
2023/09/16 10:02:32;;;;;;;;;;;25.10;99.90;;;;;;5125914;27;19930;-65
2023/09/16 10:04:58;;;;;;;;;;;25.10;99.90;;;;;;5091616;28;20082;-65
2023/09/16 10:07:25;;;;;;;;;;;25.40;99.90;;;;;;5091684;28;19931;-66
2023/09/16 10:09:51;;;;;;;;;;;25.60;99.90;;;;;;5125606;27;20346;-66
2023/09/16 10:12:17;;;;;;;;;;;25.80;99.90;;;;;;5074242;28;19935;-65
2023/09/16 10:14:45;;;;;;;;;;;25.40;99.90;;;;;;5091094;28;20135;-65
2023/09/16 10:17:11;;;;;;;;;;;25.40;99.90;;;;;;5126722;27;20371;-64
2023/09/16 10:19:37;;;;;;;;;;;25.40;99.90;;;;;;5108172;27;19924;-65
2023/09/16 10:22:02;;;;;;;;;;;25.30;99.90;;;;;;5091170;28;20344;-66
2023/09/16 10:24:28;;;;;;;;;;;25.30;99.90;;;;;;5091207;28;20060;-66
2023/09/16 10:26:55;;;;;;;;;;;25.70;99.90;;;;;;5091433;28;19924;-65
2023/09/16 10:29:20;;;;;;;;;;;25.90;99.90;;;;;;5091014;28;20234;-66
2023/09/16 10:31:46;;;;;;;;;;;26.00;95.20;;;;;;5108724;27;19930;-66
2023/09/16 10:34:13;;;;;;;;;;;26.20;70.40;;;;;;5092926;28;20386;-66
2023/09/16 10:36:38;;;;;;;;;;;26.40;65.40;;;;;;5091078;28;19924;-65
2023/09/16 10:39:04;;;;;;;;;;;26.60;38.20;;;;;;5091192;28;20234;-64
2023/09/16 10:41:30;;;;;;;;;;;26.50;30.20;;;;;;5125083;27;19923;-66
2023/09/16 10:43:57;;;;;;;;;;;26.90;49.40;;;;;;5090911;28;19938;-66
2023/09/16 10:46:23;;;;;;;;;;;27.30;32.10;;;;;;5126141;27;20265;-65
2023/09/16 10:48:51;;;;;;;;;;;27.30;27.50;;;;;;5091396;28;19998;-65
2023/09/16 10:51:20;;;;;;;;;;;27.50;99.90;;;;;;5091562;28;20281;-65
2023/09/16 10:53:48;;;;;;;;;;;27.40;99.90;;;;;;5091219;28;20078;-64
2023/09/16 10:56:24;;;;;;;;;;;27.70;99.90;;;;;;5091372;28;19931;-65
2023/09/16 10:58:55;;;;;;;;;;;27.90;99.90;;;;;;5125618;27;19920;-65
2023/09/16 11:01:25;;;;;;;;;;;28.00;99.90;;;;;;5108389;27;19927;-65
2023/09/16 11:03:55;;;;;;;;;;;28.10;99.90;;;;;;5124467;27;20258;-64
2023/09/16 11:06:21;;;;;;;;;;;28.20;99.90;;;;;;5110177;27;20122;-65
2023/09/16 11:08:47;;;;;;;;;;;27.80;99.90;;;;;;5129494;27;20591;-65
2023/09/16 11:11:13;;;;;;;;;;;28.10;99.90;;;;;;5095120;28;19946;-66
2023/09/16 11:13:39;;;;;;;;;;;28.30;99.90;;;;;;5094281;28;19988;-65
2023/09/16 11:16:04;;;;;;;;;;;27.90;99.90;;;;;;5093446;28;20416;-65
2023/09/16 11:18:31;;;;;;;;;;;27.90;99.90;;;;;;5127800;27;19947;-65
2023/09/16 11:20:57;;;;;;;;;;;28.10;99.90;;;;;;5093935;28;19931;-65
2023/09/16 11:23:23;;;;;;;;;;;28.10;99.90;;;;;;5111647;27;19924;-65
2023/09/16 11:25:48;;;;;;;;;;;28.00;99.90;;;;;;5094542;28;19927;-66
2023/09/16 11:28:16;;;;;;;;;;;28.10;99.90;;;;;;5111437;27;19926;-66
2023/09/16 11:30:52;;;;;;;;;;;28.30;99.90;;;;;;5110672;27;19950;-66
2023/09/16 11:33:35;;;;;;;;;;;28.30;99.90;;;;;;5095688;28;19923;-66
2023/09/16 11:36:11;;;;;;;;;;;28.40;1.00;;;;;;5095454;28;20329;-66
2023/09/16 11:38:37;;;;;;;;;;;28.60;1.00;;;;;;5094038;28;19924;-66
2023/09/16 11:41:10;;;;;;;;;;;28.40;1.00;;;;;;5125703;27;19934;-66
2023/09/16 11:43:39;;;;;;;;;;;28.40;1.00;;;;;;5093477;28;19924;-66
2023/09/16 11:46:08;;;;;;;;;;;28.40;1.00;;;;;;5076668;28;19932;-66
2023/09/16 11:48:54;;;;;;;;;;;28.60;1.00;;;;;;5075805;28;20416;-66
2023/09/16 11:51:21;;;;;;;;;;;28.90;1.00;;;;;;5094040;28;20400;-66
2023/09/16 11:53:47;;;;;;;;;;;28.70;1.00;;;;;;5095396;28;19924;-65
2023/09/16 11:56:13;;;;;;;;;;;28.80;1.00;;;;;;5095452;28;19946;-67
2023/09/16 11:58:42;;;;;;;;;;;28.80;1.00;;;;;;5111667;27;20399;-65
2023/09/16 12:01:10;;;;;;;;;;;28.70;1.00;;;;;;5078383;28;20544;-65
2023/09/16 12:03:36;;;;;;;;;;;28.50;1.00;;;;;;5094943;28;19923;-66
2023/09/16 12:06:02;;;;;;;;;;;28.90;1.00;;;;;;5094777;28;20131;-66
2023/09/16 12:08:28;;;;;;;;;;;29.00;1.00;;;;;;5095619;28;19974;-66
2023/09/16 12:10:54;;;;;;;;;;;28.80;1.00;;;;;;5095376;28;20313;-66
2023/09/16 12:13:27;;;;;;;;;;;28.70;1.00;;;;;;5094670;28;19928;-66
2023/09/16 12:15:52;;;;;;;;;;;29.10;1.00;;;;;;5096123;28;19946;-66
2023/09/16 12:18:18;;;;;;;;;;;29.20;1.00;;;;;;5095668;28;20405;-66
2023/09/16 12:20:44;;;;;;;;;;;29.00;1.00;;;;;;5112190;27;20413;-66
2023/09/16 12:23:10;;;;;;;;;;;29.30;1.00;;;;;;5095784;28;20074;-66
2023/09/16 12:25:40;;;;;;;;;;;29.10;1.00;;;;;;5094636;28;19932;-65
2023/09/16 12:28:05;;;;;;;;;;;29.10;1.00;;;;;;5111996;27;20377;-65
2023/09/16 12:30:40;;;;;;;;;;;29.00;1.00;;;;;;5094825;28;19927;-66
2023/09/16 12:33:05;;;;;;;;;;;29.40;1.00;;;;;;5111935;27;19935;-65
2023/09/16 12:35:31;;;;;;;;;;;29.80;1.00;;;;;;5095730;28;19923;-66
2023/09/16 12:38:00;;;;;;;;;;;29.70;1.00;;;;;;5110259;27;20008;-66
2023/09/16 12:40:26;;;;;;;;;;;29.50;1.00;;;;;;5093862;28;19993;-66
2023/09/16 12:42:52;;;;;;;;;;;29.40;1.00;;;;;;5092490;27;20212;-66
2023/09/16 12:45:18;;;;;;;;;;;28.60;1.00;;;;;;5075456;28;20419;-66
2023/09/16 12:47:43;;;;;;;;;;;27.90;1.00;;;;;;5126822;27;19923;-66
2023/09/16 12:50:09;;;;;;;;;;;27.40;1.00;;;;;;5093015;28;20114;-66
2023/09/16 12:52:35;;;;;;;;;;;27.10;1.00;;;;;;5056811;27;22551;-65
2023/09/16 12:55:00;;;;;;;;;;;26.90;1.00;;;;;;5020540;28;20573;-65
2023/09/16 12:57:27;;;;;;;;;;;26.60;1.00;;;;;;5051429;28;19939;-66
2023/09/16 12:59:58;;;;;;;;;;;27.30;1.00;;;;;;5051686;28;20015;-66
2023/09/16 13:02:24;;;;;;;;;;;27.70;1.00;;;;;;5051129;28;19924;-66
2023/09/16 13:05:08;;;;;;;;;;;28.30;1.00;;;;;;5051978;28;20073;-65
2023/09/16 13:07:33;;;;;;;;;;;28.70;1.00;;;;;;5085720;28;19935;-66
2023/09/16 13:09:59;;;;;;;;;;;28.80;1.00;;;;;;5068376;28;19920;-66
2023/09/16 13:12:24;;;;;;;;;;;28.50;1.00;;;;;;5085338;28;19928;-64
2023/09/16 13:14:50;;;;;;;;;;;27.70;1.00;;;;;;5052317;28;19973;-66
2023/09/16 13:17:16;;;;;;;;;;;27.60;1.00;;;;;;5052510;28;19975;-66
2023/09/16 13:19:42;;;;;;;;;;;27.40;1.00;;;;;;5035283;28;20167;-66
2023/09/16 13:22:11;;;;;;;;;;;27.20;1.00;;;;;;5035041;28;19999;-66
2023/09/16 13:24:45;;;;;;;;;;;27.40;1.00;;;;;;5052072;28;20382;-66
2023/09/16 13:27:17;;;;;;;;;;;27.40;1.00;;;;;;5068767;28;19920;-66
2023/09/16 13:29:43;;;;;;;;;;;27.40;1.00;;;;;;5067940;28;19925;-67
2023/09/16 13:32:09;;;;;;;;;;;26.90;1.00;;;;;;5053296;28;20436;-65
2023/09/16 13:34:41;;;;;;;;;;;26.60;1.00;;;;;;5085925;28;20284;-66
2023/09/16 13:37:07;;;;;;;;;;;26.40;1.00;;;;;;5052172;28;20271;-66
2023/09/16 13:39:46;;;;;;;;;;;26.70;1.00;;;;;;5085792;28;20018;-66
2023/09/16 13:42:12;;;;;;;;;;;27.10;1.00;;;;;;5068283;28;19924;-66
2023/09/16 13:44:37;;;;;;;;;;;27.30;1.00;;;;;;5085272;28;20262;-67
2023/09/16 13:47:03;;;;;;;;;;;27.50;1.00;;;;;;5053136;28;19928;-67
2023/09/16 13:49:30;;;;;;;;;;;27.60;1.00;;;;;;5068641;28;20340;-66
2023/09/16 13:51:55;;;;;;;;;;;27.60;1.00;;;;;;5053260;28;20393;-66
2023/09/16 13:54:21;;;;;;;;;;;27.60;1.00;;;;;;5085845;28;19924;-67
2023/09/16 13:56:47;;;;;;;;;;;27.50;1.00;;;;;;5052915;28;19927;-66
2023/09/16 13:59:12;;;;;;;;;;;27.60;1.00;;;;;;5068385;28;20623;-65
2023/09/16 14:01:38;;;;;;;;;;;27.90;1.00;;;;;;5068123;28;20341;-66
2023/09/16 14:04:03;;;;;;;;;;;27.60;1.00;;;;;;5051173;28;19989;-65
2023/09/16 14:06:29;;;;;;;;;;;27.50;1.00;;;;;;5084791;28;19929;-66
2023/09/16 14:08:55;;;;;;;;;;;27.30;1.00;;;;;;5068647;28;19931;-66
2023/09/16 14:11:21;;;;;;;;;;;26.90;1.00;;;;;;5068153;28;19930;-65
2023/09/16 14:13:46;;;;;;;;;;;26.50;1.00;;;;;;5051074;28;20302;-65
2023/09/16 14:16:12;;;;;;;;;;;26.00;1.00;;;;;;5067939;28;19928;-66
2023/09/16 14:18:37;;;;;;;;;;;26.00;1.00;;;;;;5052541;28;19928;-66
2023/09/16 14:21:03;;;;;;;;;;;26.80;1.00;;;;;;5067967;28;20103;-67
2023/09/16 14:23:29;;;;;;;;;;;27.60;1.00;;;;;;5068191;28;19924;-66
2023/09/16 14:25:57;;;;;;;;;;;27.70;1.00;;;;;;5053013;28;19932;-66
2023/09/16 14:28:23;;;;;;;;;;;27.20;1.00;;;;;;5084340;28;20053;-66
2023/09/16 14:30:49;;;;;;;;;;;26.50;1.00;;;;;;5084936;28;19954;-66
2023/09/16 14:33:14;;;;;;;;;;;26.90;1.00;;;;;;5052388;28;19955;-66
2023/09/16 14:35:40;;;;;;;;;;;27.50;1.00;;;;;;5067597;28;20054;-67
2023/09/16 14:38:05;;;;;;;;;;;27.30;1.00;;;;;;5068240;28;20328;-66
2023/09/16 14:40:32;;;;;;;;;;;27.10;1.00;;;;;;5084586;28;20093;-66
2023/09/16 14:42:58;;;;;;;;;;;27.00;1.00;;;;;;5084309;28;20233;-66
2023/09/16 14:45:23;;;;;;;;;;;26.90;1.00;;;;;;5051983;28;20425;-66
2023/09/16 14:47:49;;;;;;;;;;;26.30;1.00;;;;;;5050482;28;19989;-66
2023/09/16 14:50:15;;;;;;;;;;;25.50;1.00;;;;;;5052081;28;19979;-66
2023/09/16 14:52:41;;;;;;;;;;;24.90;1.00;;;;;;5084387;28;19927;-65
2023/09/16 14:55:09;;;;;;;;;;;24.50;1.00;;;;;;5067586;28;20199;-65
2023/09/16 14:57:35;;;;;;;;;;;24.60;1.00;;;;;;5034040;28;19921;-65
2023/09/16 15:00:00;;;;;;;;;;;24.40;1.00;;;;;;5049985;28;19928;-66
2023/09/16 15:02:26;;;;;;;;;;;24.80;1.00;;;;;;5050523;28;20002;-66
2023/09/16 15:04:55;;;;;;;;;;;25.30;1.00;;;;;;5050526;28;20090;-66
2023/09/16 15:07:22;;;;;;;;;;;25.60;1.00;;;;;;5050741;28;19939;-65
2023/09/16 15:09:50;;;;;;;;;;;26.10;1.00;;;;;;5084240;28;19975;-65
2023/09/16 15:12:16;;;;;;;;;;;26.60;1.00;;;;;;5050869;28;20220;-65
2023/09/16 15:14:42;;;;;;;;;;;26.50;1.00;;;;;;5051649;28;20434;-65
2023/09/16 15:17:08;;;;;;;;;;;27.10;1.00;;;;;;5050058;28;19997;-66
2023/09/16 15:19:33;;;;;;;;;;;27.50;1.00;;;;;;5067123;28;19936;-66
2023/09/16 15:21:59;;;;;;;;;;;27.70;1.00;;;;;;5066629;28;20842;-66
2023/09/16 15:24:24;;;;;;;;;;;28.10;1.00;;;;;;5066046;28;20330;-66
2023/09/16 15:26:51;;;;;;;;;;;28.20;1.00;;;;;;5067162;28;20016;-66
2023/09/16 15:29:16;;;;;;;;;;;27.80;1.00;;;;;;5051201;28;19966;-66
2023/09/16 15:31:42;;;;;;;;;;;27.60;1.00;;;;;;5050458;28;20019;-66
2023/09/16 15:34:08;;;;;;;;;;;27.60;1.00;;;;;;5083501;28;19978;-66
2023/09/16 15:36:33;;;;;;;;;;;27.40;1.00;;;;;;5050478;28;20670;-66
2023/09/16 15:38:59;;;;;;;;;;;27.20;1.00;;;;;;5049930;28;19925;-66
2023/09/16 15:41:25;;;;;;;;;;;27.10;1.00;;;;;;5066563;28;19928;-66
2023/09/16 15:43:51;;;;;;;;;;;27.00;1.00;;;;;;5067763;28;20835;-66
2023/09/16 15:46:16;;;;;;;;;;;26.10;1.00;;;;;;5033119;28;20417;-66
2023/09/16 15:48:42;;;;;;;;;;;24.80;1.00;;;;;;5032614;28;19964;-67
2023/09/16 15:51:07;;;;;;;;;;;24.10;1.00;;;;;;5050550;28;19924;-66
2023/09/16 15:53:33;;;;;;;;;;;23.70;1.00;;;;;;5069552;28;20154;-66
2023/09/16 15:55:59;;;;;;;;;;;23.40;1.00;;;;;;5070221;28;20862;-66
2023/09/16 15:58:25;;;;;;;;;;;23.00;1.00;;;;;;5069919;28;19932;-66
2023/09/16 16:00:52;;;;;;;;;;;22.80;1.00;;;;;;5086700;28;19993;-66
2023/09/16 16:03:18;;;;;;;;;;;22.60;1.00;;;;;;5052868;28;20750;-66
2023/09/16 16:05:44;;;;;;;;;;;22.40;1.00;;;;;;5054919;28;19974;-66
2023/09/16 16:08:11;;;;;;;;;;;22.20;1.00;;;;;;5053276;28;19924;-65
2023/09/16 16:10:37;;;;;;;;;;;22.10;1.00;;;;;;5053070;28;19956;-64
2023/09/16 16:13:03;;;;;;;;;;;22.10;1.00;;;;;;5052669;28;19924;-66
2023/09/16 16:15:28;;;;;;;;;;;22.10;1.00;;;;;;5053190;28;19924;-65
2023/09/16 16:17:54;;;;;;;;;;;22.20;1.00;;;;;;5056008;28;20468;-65
2023/09/16 16:20:20;;;;;;;;;;;22.10;1.00;;;;;;5054668;28;19936;-65
2023/09/16 16:22:45;;;;;;;;;;;22.20;1.00;;;;;;5087142;28;19929;-65
2023/09/16 16:25:11;;;;;;;;;;;22.40;1.00;;;;;;5055767;28;19976;-65
2023/09/16 16:27:37;;;;;;;;;;;22.50;1.00;;;;;;5069962;28;19928;-64
2023/09/16 16:30:05;;;;;;;;;;;22.50;1.00;;;;;;5086486;28;20402;-66
2023/09/16 16:32:33;;;;;;;;;;;22.70;1.00;;;;;;5086944;28;19924;-66
2023/09/16 16:34:59;;;;;;;;;;;22.70;1.00;;;;;;5056998;28;20416;-67
2023/09/16 16:37:25;;;;;;;;;;;22.70;1.00;;;;;;5053853;28;19929;-66
2023/09/16 16:39:51;;;;;;;;;;;22.60;1.00;;;;;;5053817;28;20323;-65
2023/09/16 16:42:17;;;;;;;;;;;22.60;1.00;;;;;;5053102;28;19932;-66
2023/09/16 16:44:42;;;;;;;;;;;22.40;1.00;;;;;;5053094;28;20041;-65
2023/09/16 16:47:08;;;;;;;;;;;22.20;18.50;;;;;;5052986;28;19920;-65
2023/09/16 16:49:34;;;;;;;;;;;22.20;9.00;;;;;;5053288;28;20054;-65
2023/09/16 16:52:00;;;;;;;;;;;22.10;33.30;;;;;;5055401;28;20055;-65
2023/09/16 16:54:25;;;;;;;;;;;22.00;28.20;;;;;;5038196;28;19924;-65
2023/09/16 16:56:51;;;;;;;;;;;21.80;42.80;;;;;;5020913;28;19924;-66
2023/09/16 16:59:16;;;;;;;;;;;21.80;63.60;;;;;;5085656;28;19935;-66
2023/09/16 17:01:43;;;;;;;;;;;21.60;88.50;;;;;;5087124;28;20623;-66
2023/09/16 17:04:09;;;;;;;;;;;21.40;92.70;;;;;;5031211;28;20712;-67
2023/09/16 17:06:34;;;;;;;;;;;21.30;98.80;;;;;;5069236;28;19956;-65
2023/09/16 17:09:02;;;;;;;;;;;21.20;99.90;;;;;;5054514;28;19931;-65
2023/09/16 17:11:28;;;;;;;;;;;21.30;99.90;;;;;;5056599;28;19989;-65
2023/09/16 17:13:57;;;;;;;;;;;21.20;96.40;;;;;;5054997;28;19924;-66
2023/09/16 17:16:25;;;;;;;;;;;21.10;99.90;;;;;;5086965;28;19924;-65
2023/09/16 17:18:51;;;;;;;;;;;21.10;85.20;;;;;;5038081;28;20019;-66
2023/09/16 17:21:21;;;;;;;;;;;20.90;99.90;;;;;;5054740;28;19934;-66
2023/09/16 17:23:51;;;;;;;;;;;20.70;99.90;;;;;;5071251;28;19990;-66
2023/09/16 17:26:37;;;;;;;;;;;20.50;99.90;;;;;;5084599;28;20317;-64
2023/09/16 17:29:02;;;;;;;;;;;20.40;99.90;;;;;;5083086;28;20206;-64
2023/09/16 17:31:28;;;;;;;;;;;20.10;99.90;;;;;;5050730;28;19977;-66
2023/09/16 17:33:54;;;;;;;;;;;20.00;99.90;;;;;;5050246;28;20378;-65
2023/09/16 17:36:21;;;;;;;;;;;19.90;99.90;;;;;;5053022;28;19924;-64
2023/09/16 17:38:47;;;;;;;;;;;19.80;99.90;;;;;;5052146;28;19931;-63
2023/09/16 17:41:17;;;;;;;;;;;19.60;99.90;;;;;;5051900;28;20251;-64
2023/09/16 17:43:43;;;;;;;;;;;19.50;99.90;;;;;;5084716;28;19925;-65
2023/09/16 17:46:11;;;;;;;;;;;19.40;99.90;;;;;;5084113;28;19955;-65
2023/09/16 17:48:40;;;;;;;;;;;19.30;99.90;;;;;;5083275;28;19931;-67
2023/09/16 17:51:06;;;;;;;;;;;19.20;99.90;;;;;;5053136;28;19928;-66
2023/09/16 17:53:31;;;;;;;;;;;19.10;99.90;;;;;;5052667;28;19932;-66
2023/09/16 17:55:57;;;;;;;;;;;19.10;99.90;;;;;;5083852;28;20274;-65
2023/09/16 17:58:23;;;;;;;;;;;19.00;1.00;;;;;;5052094;28;19931;-66
2023/09/16 18:00:48;;;;;;;;;;;18.90;1.00;;;;;;5083815;28;19969;-66
2023/09/16 18:03:15;;;;;;;;;;;18.80;1.00;;;;;;5066292;28;20403;-66
2023/09/16 18:05:41;;;;;;;;;;;18.80;1.00;;;;;;5051609;28;20369;-65
2023/09/16 18:08:07;;;;;;;;;;;18.70;1.00;;;;;;5083750;28;19935;-65
2023/09/16 18:10:32;;;;;;;;;;;18.70;99.90;;;;;;5052684;28;20344;-65
2023/09/16 18:12:58;;;;;;;;;;;18.60;99.90;;;;;;5066291;28;20228;-66
2023/09/16 18:15:26;;;;;;;;;;;18.60;99.90;;;;;;5066191;28;19924;-66
2023/09/16 18:17:52;;;;;;;;;;;18.50;99.90;;;;;;5051970;28;19928;-65
2023/09/16 18:20:19;;;;;;;;;;;18.50;99.90;;;;;;5050783;28;19935;-65
2023/09/16 18:22:44;;;;;;;;;;;18.40;99.90;;;;;;5051745;28;20481;-66
2023/09/16 18:25:10;;;;;;;;;;;18.30;99.90;;;;;;5050433;28;19929;-65
2023/09/16 18:27:36;;;;;;;;;;;18.30;99.90;;;;;;5050513;28;19978;-65
2023/09/16 18:30:03;;;;;;;;;;;18.20;99.90;;;;;;5084552;28;19954;-65
2023/09/16 18:32:28;;;;;;;;;;;18.20;1.00;;;;;;5049931;28;19928;-65
2023/09/16 18:34:54;;;;;;;;;;;18.10;91.30;;;;;;5084430;28;20368;-64
2023/09/16 18:37:19;;;;;;;;;;;18.00;1.00;;;;;;5051617;28;20372;-65
2023/09/16 18:39:45;;;;;;;;;;;17.90;99.90;;;;;;5036042;28;20219;-65
2023/09/16 18:42:17;;;;;;;;;;;17.90;99.90;;;;;;5036334;28;19924;-65
2023/09/16 18:44:42;;;;;;;;;;;17.80;99.90;;;;;;5069550;28;19932;-64
2023/09/16 18:47:08;;;;;;;;;;;17.70;99.90;;;;;;5067890;28;19931;-63
2023/09/16 18:49:37;;;;;;;;;;;17.70;1.00;;;;;;5084413;28;20212;-63
2023/09/16 18:52:03;;;;;;;;;;;17.60;1.00;;;;;;5066186;28;20401;-63
2023/09/16 18:54:29;;;;;;;;;;;17.60;99.90;;;;;;5051100;28;20367;-64
2023/09/16 18:56:55;;;;;;;;;;;17.50;1.00;;;;;;5051490;28;19981;-63
2023/09/16 18:59:21;;;;;;;;;;;17.50;1.00;;;;;;5050318;28;19924;-63
2023/09/16 19:01:46;;;;;;;;;;;17.40;99.90;;;;;;5052248;28;20027;-63
2023/09/16 19:04:13;;;;;;;;;;;17.40;1.00;;;;;;5051607;28;19978;-63
2023/09/16 19:06:39;;;;;;;;;;;17.40;99.90;;;;;;5083147;28;19925;-63
2023/09/16 19:09:05;;;;;;;;;;;17.40;1.00;;;;;;5065498;28;19990;-63
2023/09/16 19:11:30;;;;;;;;;;;17.40;99.90;;;;;;5049657;28;19989;-64
2023/09/16 19:13:56;;;;;;;;;;;17.40;99.90;;;;;;5049799;28;19967;-64
2023/09/16 19:16:22;;;;;;;;;;;17.50;99.90;;;;;;5033206;28;20522;-64
2023/09/16 19:18:47;;;;;;;;;;;17.50;99.90;;;;;;5049759;28;20265;-64
2023/09/16 19:21:13;;;;;;;;;;;17.40;99.90;;;;;;5033455;28;19920;-64
2023/09/16 19:23:40;;;;;;;;;;;17.40;99.90;;;;;;5084299;28;19943;-65
2023/09/16 19:26:05;;;;;;;;;;;17.40;99.90;;;;;;5085088;28;20558;-66
2023/09/16 19:28:31;;;;;;;;;;;17.40;99.90;;;;;;5069537;28;19924;-65
2023/09/16 19:30:57;;;;;;;;;;;17.40;99.90;;;;;;5088183;28;20408;-65
2023/09/16 19:33:23;;;;;;;;;;;17.40;99.90;;;;;;5070445;28;20313;-66
2023/09/16 19:35:49;;;;;;;;;;;17.30;99.90;;;;;;5070572;28;20162;-65
2023/09/16 19:38:17;;;;;;;;;;;17.30;99.90;;;;;;5087468;28;19932;-66
2023/09/16 19:40:47;;;;;;;;;;;17.20;99.90;;;;;;5054004;28;20244;-66
2023/09/16 19:43:13;;;;;;;;;;;17.10;99.90;;;;;;5087768;28;19935;-65
2023/09/16 19:45:41;;;;;;;;;;;17.10;99.90;;;;;;5037245;28;20480;-65
2023/09/16 19:48:07;;;;;;;;;;;17.00;99.90;;;;;;5087303;28;19925;-65
2023/09/16 19:50:32;;;;;;;;;;;17.00;99.90;;;;;;5036965;28;19931;-65
2023/09/16 19:52:58;;;;;;;;;;;17.00;99.90;;;;;;5070509;28;19983;-64
2023/09/16 19:55:23;;;;;;;;;;;16.90;99.90;;;;;;5070297;28;19931;-65
2023/09/16 19:57:50;;;;;;;;;;;16.90;99.90;;;;;;5054241;28;20399;-66
2023/09/16 20:00:16;;;;;;;;;;;16.90;99.90;;;;;;5054488;28;19924;-64
2023/09/16 20:02:42;;;;;;;;;;;16.80;99.90;;;;;;5054268;28;19932;-64
2023/09/16 20:05:07;;;;;;;;;;;16.70;99.90;;;;;;5055054;28;19933;-65
2023/09/16 20:07:33;;;;;;;;;;;16.60;99.90;;;;;;5053381;28;19924;-66
2023/09/16 20:09:59;;;;;;;;;;;16.50;99.90;;;;;;5069852;28;20342;-66
2023/09/16 20:12:25;;;;;;;;;;;16.50;99.90;;;;;;5054871;28;20765;-65
2023/09/16 20:14:50;;;;;;;;;;;16.40;99.90;;;;;;5087501;28;20312;-66
2023/09/16 20:17:16;;;;;;;;;;;16.30;99.90;;;;;;5053849;28;20558;-66
2023/09/16 20:19:42;;;;;;;;;;;16.20;99.90;;;;;;5069962;28;20373;-66
2023/09/16 20:22:08;;;;;;;;;;;16.20;99.90;;;;;;5052988;28;20426;-65
2023/09/16 20:24:33;;;;;;;;;;;16.10;99.90;;;;;;5053089;28;20467;-66
2023/09/16 20:27:01;;;;;;;;;;;16.10;1.00;;;;;;5053395;28;20001;-66
2023/09/16 20:29:26;;;;;;;;;;;16.10;99.90;;;;;;5052951;28;19935;-66
2023/09/16 20:31:52;;;;;;;;;;;16.00;99.90;;;;;;5053494;28;19924;-65
2023/09/16 20:34:17;;;;;;;;;;;16.00;99.90;;;;;;5087005;28;20061;-66
2023/09/16 20:36:46;;;;;;;;;;;16.10;1.00;;;;;;5086167;28;19928;-66
2023/09/16 20:39:12;;;;;;;;;;;16.00;1.00;;;;;;5050622;28;20111;-65
2023/09/16 20:41:37;;;;;;;;;;;16.10;1.00;;;;;;5053597;28;19928;-66
2023/09/16 20:44:03;;;;;;;;;;;16.10;99.90;;;;;;5053907;28;19937;-66
2023/09/16 20:46:29;;;;;;;;;;;16.30;99.90;;;;;;5054697;28;20621;-65
2023/09/16 20:48:55;;;;;;;;;;;16.30;99.90;;;;;;5053934;28;20251;-66
2023/09/16 20:51:20;;;;;;;;;;;16.30;99.90;;;;;;5036402;28;20011;-66
2023/09/16 20:53:47;;;;;;;;;;;16.30;99.90;;;;;;5036678;28;19924;-66
2023/09/16 20:56:14;;;;;;;;;;;16.20;99.90;;;;;;5055778;28;20023;-65
2023/09/16 20:58:40;;;;;;;;;;;16.20;99.90;;;;;;5036228;28;20343;-66
2023/09/16 21:01:06;;;;;;;;;;;16.10;99.90;;;;;;5085135;28;19928;-66
2023/09/16 21:03:31;;;;;;;;;;;16.00;99.90;;;;;;5035888;28;20012;-66
2023/09/16 21:05:57;;;;;;;;;;;16.00;99.90;;;;;;5036444;28;20001;-66
2023/09/16 21:08:22;;;;;;;;;;;15.90;99.90;;;;;;5036320;28;19925;-66
2023/09/16 21:10:48;;;;;;;;;;;15.90;99.90;;;;;;5052667;28;20027;-66
2023/09/16 21:13:14;;;;;;;;;;;15.90;99.90;;;;;;5084704;28;19950;-66
2023/09/16 21:15:39;;;;;;;;;;;15.80;99.90;;;;;;5050652;28;19927;-66
2023/09/16 21:18:05;;;;;;;;;;;15.80;99.90;;;;;;5053822;28;19985;-66
2023/09/16 21:20:30;;;;;;;;;;;15.70;99.90;;;;;;5051486;28;19924;-66
2023/09/16 21:22:56;;;;;;;;;;;15.60;1.00;;;;;;5084211;28;19924;-65
2023/09/16 21:25:22;;;;;;;;;;;15.60;1.00;;;;;;5085356;28;20047;-65
2023/09/16 21:27:47;;;;;;;;;;;15.60;1.00;;;;;;5055075;28;19924;-65
2023/09/16 21:30:14;;;;;;;;;;;15.60;1.00;;;;;;5084770;28;19967;-65
2023/09/16 21:32:39;;;;;;;;;;;15.60;1.00;;;;;;5052704;28;19932;-65
2023/09/16 21:35:05;;;;;;;;;;;15.50;1.00;;;;;;5052654;28;19928;-64
2023/09/16 21:37:31;;;;;;;;;;;15.50;1.00;;;;;;5053490;28;19928;-65
2023/09/16 21:39:56;;;;;;;;;;;15.50;1.00;;;;;;5036831;28;20305;-65
2023/09/16 21:42:22;;;;;;;;;;;15.40;1.00;;;;;;5067637;28;19924;-65
2023/09/16 21:44:48;;;;;;;;;;;15.30;1.00;;;;;;5053749;28;19981;-65
2023/09/16 21:47:14;;;;;;;;;;;15.20;1.00;;;;;;5084703;28;19934;-65
2023/09/16 21:49:42;;;;;;;;;;;15.10;1.00;;;;;;5051201;28;20411;-64
2023/09/16 21:52:08;;;;;;;;;;;15.00;1.00;;;;;;5083851;28;20036;-64
2023/09/16 21:54:33;;;;;;;;;;;14.80;33.60;;;;;;5068164;28;19920;-65
2023/09/16 21:56:59;;;;;;;;;;;14.80;42.70;;;;;;5085292;28;20244;-64
2023/09/16 21:59:25;;;;;;;;;;;14.80;99.90;;;;;;5053214;28;19929;-65
2023/09/16 22:01:50;;;;;;;;;;;14.60;99.90;;;;;;5052618;28;19924;-65
2023/09/16 22:04:17;;;;;;;;;;;14.50;99.90;;;;;;5052231;28;20424;-65
2023/09/16 22:06:43;;;;;;;;;;;14.40;99.90;;;;;;5084136;28;19928;-65
2023/09/16 22:09:08;;;;;;;;;;;14.30;99.90;;;;;;5084143;28;19924;-65
2023/09/16 22:11:34;;;;;;;;;;;14.30;99.90;;;;;;5085025;28;19924;-65
2023/09/16 22:13:59;;;;;;;;;;;14.20;99.90;;;;;;5035292;28;19936;-65
2023/09/16 22:16:26;;;;;;;;;;;14.10;88.80;;;;;;5084256;28;20027;-65
2023/09/16 22:18:52;;;;;;;;;;;14.00;99.90;;;;;;5066826;28;19971;-65
2023/09/16 22:21:18;;;;;;;;;;;13.90;99.90;;;;;;5053849;28;20648;-66
2023/09/16 22:23:45;;;;;;;;;;;13.90;99.90;;;;;;5053006;28;19955;-65
2023/09/16 22:26:11;;;;;;;;;;;13.90;99.90;;;;;;5035949;28;19924;-65
2023/09/16 22:28:36;;;;;;;;;;;13.80;2.20;;;;;;5083857;28;19925;-66
2023/09/16 22:31:02;;;;;;;;;;;13.90;99.90;;;;;;5052770;28;20321;-66
2023/09/16 22:33:28;;;;;;;;;;;13.80;99.90;;;;;;5084304;28;20251;-65
2023/09/16 22:35:54;;;;;;;;;;;13.70;99.90;;;;;;5034713;28;20175;-65
2023/09/16 22:38:19;;;;;;;;;;;13.80;99.90;;;;;;5066777;28;19920;-66
2023/09/16 22:40:45;;;;;;;;;;;13.70;99.90;;;;;;5067077;28;19928;-66
2023/09/16 22:43:11;;;;;;;;;;;13.70;99.90;;;;;;5084116;28;19985;-67
2023/09/16 22:45:37;;;;;;;;;;;13.60;99.90;;;;;;5066827;28;20358;-66
2023/09/16 22:48:02;;;;;;;;;;;13.60;99.90;;;;;;5083275;28;20022;-66
2023/09/16 22:50:28;;;;;;;;;;;13.60;99.90;;;;;;5066865;28;19925;-65
2023/09/16 22:52:54;;;;;;;;;;;13.60;99.90;;;;;;5052291;28;20111;-65
2023/09/16 22:55:19;;;;;;;;;;;13.50;99.90;;;;;;5067124;28;20135;-64
2023/09/16 22:57:45;;;;;;;;;;;13.50;99.90;;;;;;5052034;28;20200;-65
2023/09/16 23:00:11;;;;;;;;;;;13.50;99.90;;;;;;5052064;28;20380;-66
2023/09/16 23:02:36;;;;;;;;;;;13.40;99.90;;;;;;5027387;28;20235;-65
2023/09/16 23:05:03;;;;;;;;;;;13.40;99.90;;;;;;5070403;28;19990;-64
2023/09/16 23:07:29;;;;;;;;;;;13.40;99.90;;;;;;5038201;28;19928;-65
2023/09/16 23:09:56;;;;;;;;;;;13.40;99.90;;;;;;5055917;28;19986;-66
2023/09/16 23:12:22;;;;;;;;;;;13.30;99.90;;;;;;5060748;28;19929;-65
2023/09/16 23:14:47;;;;;;;;;;;13.40;99.90;;;;;;5087533;28;19969;-65
2023/09/16 23:17:13;;;;;;;;;;;13.30;99.90;;;;;;5055332;28;19924;-66
2023/09/16 23:19:39;;;;;;;;;;;13.30;99.90;;;;;;5056336;28;19936;-66
2023/09/16 23:22:04;;;;;;;;;;;13.30;99.90;;;;;;5054737;28;19924;-66
2023/09/16 23:24:30;;;;;;;;;;;13.40;99.90;;;;;;5087023;28;20151;-66
2023/09/16 23:26:56;;;;;;;;;;;13.30;99.90;;;;;;5054974;28;19924;-66
2023/09/16 23:29:21;;;;;;;;;;;13.50;99.90;;;;;;5069744;28;19924;-66